sensor_id;sensor_type;location;lat;lon;timestamp;P1;durP1;ratioP1;P2;durP2;ratioP2
46613;SDS011;32338;50.430;6.806;2023-04-24T00:01:57;0.63;;;0.30;;
46613;SDS011;32338;50.430;6.806;2023-04-24T00:04:24;0.30;;;0.30;;
46613;SDS011;32338;50.430;6.806;2023-04-24T00:06:51;0.80;;;0.30;;
46613;SDS011;32338;50.430;6.806;2023-04-24T00:09:22;1.33;;;0.50;;
46613;SDS011;32338;50.430;6.806;2023-04-24T00:11:50;0.55;;;0.32;;
46613;SDS011;32338;50.430;6.806;2023-04-24T00:14:17;0.30;;;0.30;;
46613;SDS011;32338;50.430;6.806;2023-04-24T00:16:43;0.50;;;0.43;;
46613;SDS011;32338;50.430;6.806;2023-04-24T00:19:10;0.80;;;0.40;;
46613;SDS011;32338;50.430;6.806;2023-04-24T00:21:37;0.75;;;0.45;;
46613;SDS011;32338;50.430;6.806;2023-04-24T00:24:04;0.80;;;0.50;;
46613;SDS011;32338;50.430;6.806;2023-04-24T00:26:31;1.05;;;0.57;;
46613;SDS011;32338;50.430;6.806;2023-04-24T00:28:59;0.85;;;0.45;;
46613;SDS011;32338;50.430;6.806;2023-04-24T00:31:25;2.53;;;0.70;;
46613;SDS011;32338;50.430;6.806;2023-04-24T00:33:52;0.82;;;0.77;;
46613;SDS011;32338;50.430;6.806;2023-04-24T00:36:18;1.67;;;0.60;;
46613;SDS011;32338;50.430;6.806;2023-04-24T00:38:45;0.85;;;0.63;;
46613;SDS011;32338;50.430;6.806;2023-04-24T00:41:12;2.50;;;0.70;;
46613;SDS011;32338;50.430;6.806;2023-04-24T00:43:39;2.88;;;0.80;;
46613;SDS011;32338;50.430;6.806;2023-04-24T00:46:07;0.70;;;0.70;;
46613;SDS011;32338;50.430;6.806;2023-04-24T00:48:34;0.80;;;0.70;;
46613;SDS011;32338;50.430;6.806;2023-04-24T00:51:01;2.25;;;0.80;;
46613;SDS011;32338;50.430;6.806;2023-04-24T00:53:27;2.15;;;0.80;;
46613;SDS011;32338;50.430;6.806;2023-04-24T00:55:54;1.33;;;0.80;;
46613;SDS011;32338;50.430;6.806;2023-04-24T00:58:22;0.70;;;0.70;;
46613;SDS011;32338;50.430;6.806;2023-04-24T01:00:49;2.20;;;0.90;;
46613;SDS011;32338;50.430;6.806;2023-04-24T01:03:19;1.38;;;0.90;;
46613;SDS011;32338;50.430;6.806;2023-04-24T01:05:47;1.55;;;1.10;;
46613;SDS011;32338;50.430;6.806;2023-04-24T01:08:15;2.72;;;1.35;;
46613;SDS011;32338;50.430;6.806;2023-04-24T01:10:42;3.65;;;2.33;;
46613;SDS011;32338;50.430;6.806;2023-04-24T01:13:11;1.98;;;1.65;;
46613;SDS011;32338;50.430;6.806;2023-04-24T01:15:37;2.55;;;1.63;;
46613;SDS011;32338;50.430;6.806;2023-04-24T01:18:04;1.40;;;1.30;;
46613;SDS011;32338;50.430;6.806;2023-04-24T01:20:32;2.47;;;1.80;;
46613;SDS011;32338;50.430;6.806;2023-04-24T01:23:03;3.33;;;1.80;;
46613;SDS011;32338;50.430;6.806;2023-04-24T01:25:29;5.80;;;1.98;;
46613;SDS011;32338;50.430;6.806;2023-04-24T01:27:56;1.60;;;1.50;;
46613;SDS011;32338;50.430;6.806;2023-04-24T01:30:23;2.05;;;1.70;;
46613;SDS011;32338;50.430;6.806;2023-04-24T01:32:50;3.17;;;1.70;;
46613;SDS011;32338;50.430;6.806;2023-04-24T01:35:17;3.55;;;1.83;;
46613;SDS011;32338;50.430;6.806;2023-04-24T01:37:45;2.40;;;1.58;;
46613;SDS011;32338;50.430;6.806;2023-04-24T01:40:13;2.47;;;2.28;;
46613;SDS011;32338;50.430;6.806;2023-04-24T01:42:40;1.80;;;1.70;;
46613;SDS011;32338;50.430;6.806;2023-04-24T01:45:08;3.92;;;2.65;;
46613;SDS011;32338;50.430;6.806;2023-04-24T01:47:37;2.92;;;1.88;;
46613;SDS011;32338;50.430;6.806;2023-04-24T01:50:05;3.30;;;3.00;;
46613;SDS011;32338;50.430;6.806;2023-04-24T01:52:32;2.63;;;2.42;;
46613;SDS011;32338;50.430;6.806;2023-04-24T01:55:01;2.85;;;2.40;;
46613;SDS011;32338;50.430;6.806;2023-04-24T01:57:30;3.65;;;2.95;;
46613;SDS011;32338;50.430;6.806;2023-04-24T01:59:57;3.67;;;3.13;;
46613;SDS011;32338;50.430;6.806;2023-04-24T02:02:24;6.05;;;2.95;;
46613;SDS011;32338;50.430;6.806;2023-04-24T02:04:52;3.63;;;3.33;;
46613;SDS011;32338;50.430;6.806;2023-04-24T02:07:19;4.40;;;4.00;;
46613;SDS011;32338;50.430;6.806;2023-04-24T02:09:45;3.78;;;3.28;;
46613;SDS011;32338;50.430;6.806;2023-04-24T02:12:12;3.97;;;3.67;;
46613;SDS011;32338;50.430;6.806;2023-04-24T02:14:40;5.57;;;3.13;;
46613;SDS011;32338;50.430;6.806;2023-04-24T02:17:07;4.70;;;4.05;;
46613;SDS011;32338;50.430;6.806;2023-04-24T02:19:34;5.95;;;4.20;;
46613;SDS011;32338;50.430;6.806;2023-04-24T02:22:00;6.13;;;5.25;;
46613;SDS011;32338;50.430;6.806;2023-04-24T02:24:27;4.47;;;4.07;;
46613;SDS011;32338;50.430;6.806;2023-04-24T02:26:54;6.40;;;4.70;;
46613;SDS011;32338;50.430;6.806;2023-04-24T02:29:20;6.90;;;4.90;;
46613;SDS011;32338;50.430;6.806;2023-04-24T02:31:49;7.80;;;4.57;;
46613;SDS011;32338;50.430;6.806;2023-04-24T02:34:15;5.88;;;5.22;;
46613;SDS011;32338;50.430;6.806;2023-04-24T02:36:42;5.03;;;4.47;;
46613;SDS011;32338;50.430;6.806;2023-04-24T02:39:08;7.50;;;4.80;;
46613;SDS011;32338;50.430;6.806;2023-04-24T02:41:35;8.75;;;4.47;;
46613;SDS011;32338;50.430;6.806;2023-04-24T02:44:02;5.35;;;4.85;;
46613;SDS011;32338;50.430;6.806;2023-04-24T02:46:28;5.18;;;4.68;;
46613;SDS011;32338;50.430;6.806;2023-04-24T02:48:56;7.40;;;4.63;;
46613;SDS011;32338;50.430;6.806;2023-04-24T02:51:23;5.03;;;4.53;;
46613;SDS011;32338;50.430;6.806;2023-04-24T02:53:50;7.78;;;5.60;;
46613;SDS011;32338;50.430;6.806;2023-04-24T02:56:16;6.93;;;4.45;;
46613;SDS011;32338;50.430;6.806;2023-04-24T02:58:43;5.43;;;4.63;;
46613;SDS011;32338;50.430;6.806;2023-04-24T03:01:10;5.72;;;4.75;;
46613;SDS011;32338;50.430;6.806;2023-04-24T03:03:36;6.13;;;5.40;;
46613;SDS011;32338;50.430;6.806;2023-04-24T03:06:05;8.18;;;5.55;;
46613;SDS011;32338;50.430;6.806;2023-04-24T03:08:33;8.68;;;5.95;;
46613;SDS011;32338;50.430;6.806;2023-04-24T03:10:59;6.10;;;5.15;;
46613;SDS011;32338;50.430;6.806;2023-04-24T03:13:26;7.05;;;6.07;;
46613;SDS011;32338;50.430;6.806;2023-04-24T03:15:52;6.90;;;6.07;;
46613;SDS011;32338;50.430;6.806;2023-04-24T03:18:20;10.68;;;6.55;;
46613;SDS011;32338;50.430;6.806;2023-04-24T03:20:46;6.95;;;6.25;;
46613;SDS011;32338;50.430;6.806;2023-04-24T03:23:14;7.05;;;6.38;;
46613;SDS011;32338;50.430;6.806;2023-04-24T03:25:41;8.32;;;6.30;;
46613;SDS011;32338;50.430;6.806;2023-04-24T03:28:08;8.43;;;5.93;;
46613;SDS011;32338;50.430;6.806;2023-04-24T03:30:35;7.70;;;6.90;;
46613;SDS011;32338;50.430;6.806;2023-04-24T03:33:02;8.57;;;7.00;;
46613;SDS011;32338;50.430;6.806;2023-04-24T03:35:29;7.40;;;6.47;;
46613;SDS011;32338;50.430;6.806;2023-04-24T03:37:55;9.40;;;6.43;;
46613;SDS011;32338;50.430;6.806;2023-04-24T03:40:23;8.23;;;6.45;;
46613;SDS011;32338;50.430;6.806;2023-04-24T03:42:50;8.25;;;6.70;;
46613;SDS011;32338;50.430;6.806;2023-04-24T03:45:16;10.07;;;6.75;;
46613;SDS011;32338;50.430;6.806;2023-04-24T03:47:43;7.32;;;6.28;;
46613;SDS011;32338;50.430;6.806;2023-04-24T03:50:10;9.85;;;6.35;;
46613;SDS011;32338;50.430;6.806;2023-04-24T03:52:36;6.93;;;6.32;;
46613;SDS011;32338;50.430;6.806;2023-04-24T03:55:03;6.47;;;5.88;;
46613;SDS011;32338;50.430;6.806;2023-04-24T03:57:32;9.48;;;6.15;;
46613;SDS011;32338;50.430;6.806;2023-04-24T03:59:59;6.85;;;5.97;;
46613;SDS011;32338;50.430;6.806;2023-04-24T04:02:27;9.13;;;6.80;;
46613;SDS011;32338;50.430;6.806;2023-04-24T04:04:54;11.27;;;6.82;;
46613;SDS011;32338;50.430;6.806;2023-04-24T04:07:20;8.50;;;6.90;;
46613;SDS011;32338;50.430;6.806;2023-04-24T04:09:47;7.75;;;6.93;;
46613;SDS011;32338;50.430;6.806;2023-04-24T04:12:14;7.88;;;6.55;;
46613;SDS011;32338;50.430;6.806;2023-04-24T04:14:42;11.63;;;7.28;;
46613;SDS011;32338;50.430;6.806;2023-04-24T04:17:08;8.85;;;7.13;;
46613;SDS011;32338;50.430;6.806;2023-04-24T04:19:35;7.97;;;7.18;;
46613;SDS011;32338;50.430;6.806;2023-04-24T04:22:02;10.27;;;7.00;;
46613;SDS011;32338;50.430;6.806;2023-04-24T04:24:28;10.82;;;7.70;;
46613;SDS011;32338;50.430;6.806;2023-04-24T04:26:55;11.32;;;7.88;;
46613;SDS011;32338;50.430;6.806;2023-04-24T04:29:23;9.00;;;7.40;;
46613;SDS011;32338;50.430;6.806;2023-04-24T04:31:52;7.63;;;6.70;;
46613;SDS011;32338;50.430;6.806;2023-04-24T04:34:20;12.73;;;8.15;;
46613;SDS011;32338;50.430;6.806;2023-04-24T04:36:47;10.07;;;7.47;;
46613;SDS011;32338;50.430;6.806;2023-04-24T04:39:14;7.80;;;7.03;;
46613;SDS011;32338;50.430;6.806;2023-04-24T04:41:41;8.23;;;7.20;;
46613;SDS011;32338;50.430;6.806;2023-04-24T04:44:08;10.65;;;8.07;;
46613;SDS011;32338;50.430;6.806;2023-04-24T04:46:34;10.98;;;7.68;;
46613;SDS011;32338;50.430;6.806;2023-04-24T04:49:03;11.27;;;7.05;;
46613;SDS011;32338;50.430;6.806;2023-04-24T04:51:30;13.93;;;8.27;;
46613;SDS011;32338;50.430;6.806;2023-04-24T04:53:57;10.23;;;7.72;;
46613;SDS011;32338;50.430;6.806;2023-04-24T04:56:23;12.15;;;7.70;;
46613;SDS011;32338;50.430;6.806;2023-04-24T04:58:50;8.00;;;7.20;;
46613;SDS011;32338;50.430;6.806;2023-04-24T05:01:17;8.55;;;7.28;;
46613;SDS011;32338;50.430;6.806;2023-04-24T05:03:43;12.05;;;7.85;;
46613;SDS011;32338;50.430;6.806;2023-04-24T05:06:11;9.98;;;7.50;;
46613;SDS011;32338;50.430;6.806;2023-04-24T05:08:38;12.10;;;7.80;;
46613;SDS011;32338;50.430;6.806;2023-04-24T05:11:05;11.15;;;7.50;;
46613;SDS011;32338;50.430;6.806;2023-04-24T05:13:33;12.77;;;8.23;;
46613;SDS011;32338;50.430;6.806;2023-04-24T05:16:00;11.52;;;8.38;;
46613;SDS011;32338;50.430;6.806;2023-04-24T05:18:27;13.07;;;8.88;;
46613;SDS011;32338;50.430;6.806;2023-04-24T05:20:53;10.40;;;8.35;;
46613;SDS011;32338;50.430;6.806;2023-04-24T05:23:22;16.23;;;9.10;;
46613;SDS011;32338;50.430;6.806;2023-04-24T05:25:48;12.98;;;8.73;;
46613;SDS011;32338;50.430;6.806;2023-04-24T05:28:15;17.73;;;10.10;;
46613;SDS011;32338;50.430;6.806;2023-04-24T05:30:42;16.02;;;8.98;;
46613;SDS011;32338;50.430;6.806;2023-04-24T05:33:08;11.95;;;9.73;;
46613;SDS011;32338;50.430;6.806;2023-04-24T05:35:35;11.30;;;8.57;;
46613;SDS011;32338;50.430;6.806;2023-04-24T05:38:01;12.13;;;9.45;;
46613;SDS011;32338;50.430;6.806;2023-04-24T05:40:29;15.30;;;9.10;;
46613;SDS011;32338;50.430;6.806;2023-04-24T05:42:56;11.90;;;8.77;;
46613;SDS011;32338;50.430;6.806;2023-04-24T05:45:23;13.10;;;9.30;;
46613;SDS011;32338;50.430;6.806;2023-04-24T05:47:50;14.48;;;10.15;;
46613;SDS011;32338;50.430;6.806;2023-04-24T05:50:17;14.40;;;9.02;;
46613;SDS011;32338;50.430;6.806;2023-04-24T05:52:44;13.48;;;9.30;;
46613;SDS011;32338;50.430;6.806;2023-04-24T05:55:10;10.23;;;8.75;;
46613;SDS011;32338;50.430;6.806;2023-04-24T05:57:38;11.82;;;9.27;;
46613;SDS011;32338;50.430;6.806;2023-04-24T06:00:05;10.02;;;8.52;;
46613;SDS011;32338;50.430;6.806;2023-04-24T06:02:33;10.13;;;8.32;;
46613;SDS011;32338;50.430;6.806;2023-04-24T06:05:00;15.40;;;8.98;;
46613;SDS011;32338;50.430;6.806;2023-04-24T06:07:26;13.07;;;9.35;;
46613;SDS011;32338;50.430;6.806;2023-04-24T06:09:53;12.40;;;8.45;;
46613;SDS011;32338;50.430;6.806;2023-04-24T06:12:20;10.10;;;8.40;;
46613;SDS011;32338;50.430;6.806;2023-04-24T06:14:48;11.35;;;8.68;;
46613;SDS011;32338;50.430;6.806;2023-04-24T06:17:15;12.48;;;8.55;;
46613;SDS011;32338;50.430;6.806;2023-04-24T06:19:42;10.40;;;8.50;;
46613;SDS011;32338;50.430;6.806;2023-04-24T06:22:08;10.45;;;8.57;;
46613;SDS011;32338;50.430;6.806;2023-04-24T06:24:35;9.68;;;8.32;;
46613;SDS011;32338;50.430;6.806;2023-04-24T06:27:02;12.25;;;8.75;;
46613;SDS011;32338;50.430;6.806;2023-04-24T06:29:28;14.98;;;9.95;;
46613;SDS011;32338;50.430;6.806;2023-04-24T06:31:56;15.43;;;9.68;;
46613;SDS011;32338;50.430;6.806;2023-04-24T06:34:23;11.35;;;9.35;;
46613;SDS011;32338;50.430;6.806;2023-04-24T06:36:50;10.98;;;9.10;;
46613;SDS011;32338;50.430;6.806;2023-04-24T06:39:16;11.55;;;9.38;;
46613;SDS011;32338;50.430;6.806;2023-04-24T06:41:43;14.75;;;9.27;;
46613;SDS011;32338;50.430;6.806;2023-04-24T06:44:10;9.05;;;7.88;;
46613;SDS011;32338;50.430;6.806;2023-04-24T06:46:36;11.07;;;9.55;;
46613;SDS011;32338;50.430;6.806;2023-04-24T06:49:04;11.57;;;9.25;;
46613;SDS011;32338;50.430;6.806;2023-04-24T06:51:31;11.00;;;8.98;;
46613;SDS011;32338;50.430;6.806;2023-04-24T06:53:58;9.75;;;8.55;;
46613;SDS011;32338;50.430;6.806;2023-04-24T06:56:25;9.25;;;8.45;;
46613;SDS011;32338;50.430;6.806;2023-04-24T06:58:53;8.93;;;8.00;;
46613;SDS011;32338;50.430;6.806;2023-04-24T07:01:20;9.07;;;8.18;;
46613;SDS011;32338;50.430;6.806;2023-04-24T07:03:47;8.80;;;7.20;;
46613;SDS011;32338;50.430;6.806;2023-04-24T07:06:15;7.30;;;5.97;;
46613;SDS011;32338;50.430;6.806;2023-04-24T07:08:43;10.32;;;6.55;;
46613;SDS011;32338;50.430;6.806;2023-04-24T07:11:10;6.40;;;5.80;;
46613;SDS011;32338;50.430;6.806;2023-04-24T07:13:36;6.05;;;5.55;;
46613;SDS011;32338;50.430;6.806;2023-04-24T07:16:06;6.28;;;5.78;;
46613;SDS011;32338;50.430;6.806;2023-04-24T07:18:33;6.30;;;5.57;;
46613;SDS011;32338;50.430;6.806;2023-04-24T07:21:00;5.93;;;5.43;;
46613;SDS011;32338;50.430;6.806;2023-04-24T07:23:28;6.03;;;5.00;;
46613;SDS011;32338;50.430;6.806;2023-04-24T07:25:55;5.65;;;5.15;;
46613;SDS011;32338;50.430;6.806;2023-04-24T07:28:22;5.75;;;4.85;;
46613;SDS011;32338;50.430;6.806;2023-04-24T07:30:49;5.47;;;4.97;;
46613;SDS011;32338;50.430;6.806;2023-04-24T07:33:18;5.55;;;4.93;;
46613;SDS011;32338;50.430;6.806;2023-04-24T07:35:45;5.60;;;4.53;;
46613;SDS011;32338;50.430;6.806;2023-04-24T07:38:12;4.82;;;4.15;;
46613;SDS011;32338;50.430;6.806;2023-04-24T07:40:40;7.03;;;4.03;;
46613;SDS011;32338;50.430;6.806;2023-04-24T07:43:06;4.45;;;4.05;;
46613;SDS011;32338;50.430;6.806;2023-04-24T07:45:33;4.75;;;3.58;;
46613;SDS011;32338;50.430;6.806;2023-04-24T07:48:02;5.53;;;3.75;;
46613;SDS011;32338;50.430;6.806;2023-04-24T07:50:29;4.53;;;3.42;;
46613;SDS011;32338;50.430;6.806;2023-04-24T07:52:55;3.55;;;3.25;;
46613;SDS011;32338;50.430;6.806;2023-04-24T07:55:22;2.90;;;2.35;;
46613;SDS011;32338;50.430;6.806;2023-04-24T07:57:50;3.30;;;3.00;;
46613;SDS011;32338;50.430;6.806;2023-04-24T08:00:17;3.17;;;2.90;;
46613;SDS011;32338;50.430;6.806;2023-04-24T08:02:44;3.20;;;2.90;;
46613;SDS011;32338;50.430;6.806;2023-04-24T08:05:11;3.28;;;2.45;;
46613;SDS011;32338;50.430;6.806;2023-04-24T08:07:38;3.00;;;2.45;;
46613;SDS011;32338;50.430;6.806;2023-04-24T08:10:05;3.53;;;1.90;;
46613;SDS011;32338;50.430;6.806;2023-04-24T08:12:32;2.28;;;2.08;;
46613;SDS011;32338;50.430;6.806;2023-04-24T08:15:00;1.33;;;1.13;;
46613;SDS011;32338;50.430;6.806;2023-04-24T08:17:27;3.20;;;1.10;;
46613;SDS011;32338;50.430;6.806;2023-04-24T08:19:53;1.63;;;0.80;;
46613;SDS011;32338;50.430;6.806;2023-04-24T08:22:26;1.10;;;1.00;;
46613;SDS011;32338;50.430;6.806;2023-04-24T08:24:52;0.80;;;0.80;;
46613;SDS011;32338;50.430;6.806;2023-04-24T08:27:19;1.33;;;0.88;;
46613;SDS011;32338;50.430;6.806;2023-04-24T08:29:46;1.15;;;0.70;;
46613;SDS011;32338;50.430;6.806;2023-04-24T08:32:14;0.88;;;0.70;;
46613;SDS011;32338;50.430;6.806;2023-04-24T08:34:41;3.47;;;1.40;;
46613;SDS011;32338;50.430;6.806;2023-04-24T08:37:07;4.80;;;1.00;;
46613;SDS011;32338;50.430;6.806;2023-04-24T08:39:34;1.30;;;1.20;;
46613;SDS011;32338;50.430;6.806;2023-04-24T08:42:00;1.63;;;0.90;;
46613;SDS011;32338;50.430;6.806;2023-04-24T08:44:32;2.05;;;1.85;;
46613;SDS011;32338;50.430;6.806;2023-04-24T08:47:00;2.17;;;1.98;;
46613;SDS011;32338;50.430;6.806;2023-04-24T08:49:29;2.42;;;1.60;;
46613;SDS011;32338;50.430;6.806;2023-04-24T08:51:57;1.75;;;1.65;;
46613;SDS011;32338;50.430;6.806;2023-04-24T08:54:24;1.52;;;1.42;;
46613;SDS011;32338;50.430;6.806;2023-04-24T08:56:51;2.58;;;1.50;;
46613;SDS011;32338;50.430;6.806;2023-04-24T08:59:20;1.73;;;1.63;;
46613;SDS011;32338;50.430;6.806;2023-04-24T09:01:48;2.25;;;1.20;;
46613;SDS011;32338;50.430;6.806;2023-04-24T09:04:16;1.20;;;1.10;;
46613;SDS011;32338;50.430;6.806;2023-04-24T09:06:48;1.73;;;0.93;;
46613;SDS011;32338;50.430;6.806;2023-04-24T09:09:15;1.30;;;0.95;;
46613;SDS011;32338;50.430;6.806;2023-04-24T09:11:43;1.40;;;1.10;;
46613;SDS011;32338;50.430;6.806;2023-04-24T09:14:09;2.03;;;1.77;;
46613;SDS011;32338;50.430;6.806;2023-04-24T09:16:37;1.40;;;1.13;;
46613;SDS011;32338;50.430;6.806;2023-04-24T09:19:03;0.90;;;0.90;;
46613;SDS011;32338;50.430;6.806;2023-04-24T09:21:31;0.90;;;0.90;;
46613;SDS011;32338;50.430;6.806;2023-04-24T09:24:00;1.23;;;0.80;;
46613;SDS011;32338;50.430;6.806;2023-04-24T09:26:29;1.02;;;0.80;;
46613;SDS011;32338;50.430;6.806;2023-04-24T09:28:58;1.05;;;1.00;;
46613;SDS011;32338;50.430;6.806;2023-04-24T09:31:26;1.13;;;1.02;;
46613;SDS011;32338;50.430;6.806;2023-04-24T09:33:54;1.95;;;1.20;;
46613;SDS011;32338;50.430;6.806;2023-04-24T09:36:29;2.33;;;1.30;;
46613;SDS011;32338;50.430;6.806;2023-04-24T09:41:26;1.48;;;1.20;;
46613;SDS011;32338;50.430;6.806;2023-04-24T09:43:54;2.80;;;1.88;;
46613;SDS011;32338;50.430;6.806;2023-04-24T09:46:21;2.83;;;1.70;;
46613;SDS011;32338;50.430;6.806;2023-04-24T09:48:55;2.42;;;1.90;;
46613;SDS011;32338;50.430;6.806;2023-04-24T09:51:32;3.50;;;3.20;;
46613;SDS011;32338;50.430;6.806;2023-04-24T09:54:01;3.35;;;3.05;;
46613;SDS011;32338;50.430;6.806;2023-04-24T09:56:29;3.15;;;2.85;;
46613;SDS011;32338;50.430;6.806;2023-04-24T09:59:04;4.30;;;3.08;;
46613;SDS011;32338;50.430;6.806;2023-04-24T10:01:31;5.68;;;3.95;;
46613;SDS011;32338;50.430;6.806;2023-04-24T10:03:57;7.05;;;5.03;;
46613;SDS011;32338;50.430;6.806;2023-04-24T10:06:29;5.47;;;4.60;;
46613;SDS011;32338;50.430;6.806;2023-04-24T10:08:57;8.82;;;5.47;;
46613;SDS011;32338;50.430;6.806;2023-04-24T10:11:26;8.15;;;6.65;;
46613;SDS011;32338;50.430;6.806;2023-04-24T10:13:53;7.82;;;5.63;;
46613;SDS011;32338;50.430;6.806;2023-04-24T10:16:21;8.88;;;5.93;;
46613;SDS011;32338;50.430;6.806;2023-04-24T10:18:48;9.50;;;6.55;;
46613;SDS011;32338;50.430;6.806;2023-04-24T10:21:16;11.77;;;7.57;;
46613;SDS011;32338;50.430;6.806;2023-04-24T10:23:43;8.48;;;6.15;;
46613;SDS011;32338;50.430;6.806;2023-04-24T10:26:12;10.73;;;7.60;;
46613;SDS011;32338;50.430;6.806;2023-04-24T10:28:43;9.68;;;7.00;;
46613;SDS011;32338;50.430;6.806;2023-04-24T10:31:11;9.00;;;6.50;;
46613;SDS011;32338;50.430;6.806;2023-04-24T10:33:39;7.40;;;6.70;;
46613;SDS011;32338;50.430;6.806;2023-04-24T10:36:07;14.80;;;7.10;;
46613;SDS011;32338;50.430;6.806;2023-04-24T10:38:35;11.30;;;7.22;;
46613;SDS011;32338;50.430;6.806;2023-04-24T10:41:08;9.93;;;6.93;;
46613;SDS011;32338;50.430;6.806;2023-04-24T10:43:39;7.70;;;6.90;;
46613;SDS011;32338;50.430;6.806;2023-04-24T10:46:07;8.93;;;6.45;;
46613;SDS011;32338;50.430;6.806;2023-04-24T10:48:35;9.65;;;6.65;;
46613;SDS011;32338;50.430;6.806;2023-04-24T10:51:10;8.98;;;7.45;;
46613;SDS011;32338;50.430;6.806;2023-04-24T10:53:38;9.48;;;6.80;;
46613;SDS011;32338;50.430;6.806;2023-04-24T10:56:05;11.27;;;7.55;;
46613;SDS011;32338;50.430;6.806;2023-04-24T10:58:36;13.90;;;8.48;;
46613;SDS011;32338;50.430;6.806;2023-04-24T11:01:05;22.70;;;10.90;;
46613;SDS011;32338;50.430;6.806;2023-04-24T11:03:34;33.45;;;14.95;;
46613;SDS011;32338;50.430;6.806;2023-04-24T11:06:02;17.88;;;8.40;;
46613;SDS011;32338;50.430;6.806;2023-04-24T11:08:30;9.18;;;7.13;;
46613;SDS011;32338;50.430;6.806;2023-04-24T11:11:02;9.27;;;7.40;;
46613;SDS011;32338;50.430;6.806;2023-04-24T11:16:51;11.00;;;6.90;;
46613;SDS011;32338;50.430;6.806;2023-04-24T11:19:20;12.75;;;6.03;;
46613;SDS011;32338;50.430;6.806;2023-04-24T11:21:54;9.82;;;6.22;;
46613;SDS011;32338;50.430;6.806;2023-04-24T11:24:30;10.02;;;6.28;;
46613;SDS011;32338;50.430;6.806;2023-04-24T11:26:59;10.82;;;6.47;;
46613;SDS011;32338;50.430;6.806;2023-04-24T11:29:41;10.13;;;6.65;;
46613;SDS011;32338;50.430;6.806;2023-04-24T11:32:18;9.68;;;6.70;;
46613;SDS011;32338;50.430;6.806;2023-04-24T11:34:51;11.00;;;6.53;;
46613;SDS011;32338;50.430;6.806;2023-04-24T11:37:19;17.70;;;7.03;;
46613;SDS011;32338;50.430;6.806;2023-04-24T11:39:49;10.65;;;6.65;;
46613;SDS011;32338;50.430;6.806;2023-04-24T11:42:17;11.77;;;6.45;;
46613;SDS011;32338;50.430;6.806;2023-04-24T11:44:44;11.25;;;5.22;;
46613;SDS011;32338;50.430;6.806;2023-04-24T11:47:12;8.07;;;6.13;;
46613;SDS011;32338;50.430;6.806;2023-04-24T11:49:39;10.93;;;6.10;;
46613;SDS011;32338;50.430;6.806;2023-04-24T11:52:07;14.63;;;6.35;;
46613;SDS011;32338;50.430;6.806;2023-04-24T11:54:34;7.22;;;5.53;;
46613;SDS011;32338;50.430;6.806;2023-04-24T11:57:03;8.00;;;5.40;;
46613;SDS011;32338;50.430;6.806;2023-04-24T11:59:34;8.85;;;5.13;;
46613;SDS011;32338;50.430;6.806;2023-04-24T12:02:01;7.05;;;4.82;;
46613;SDS011;32338;50.430;6.806;2023-04-24T12:04:37;10.02;;;4.75;;
46613;SDS011;32338;50.430;6.806;2023-04-24T12:07:05;7.05;;;4.10;;
46613;SDS011;32338;50.430;6.806;2023-04-24T12:09:44;6.28;;;4.43;;
46613;SDS011;32338;50.430;6.806;2023-04-24T12:12:12;7.03;;;4.30;;
46613;SDS011;32338;50.430;6.806;2023-04-24T12:14:49;9.20;;;5.25;;
46613;SDS011;32338;50.430;6.806;2023-04-24T12:17:23;11.70;;;4.60;;
46613;SDS011;32338;50.430;6.806;2023-04-24T12:19:51;10.57;;;4.80;;
46613;SDS011;32338;50.430;6.806;2023-04-24T12:22:18;8.35;;;4.97;;
46613;SDS011;32338;50.430;6.806;2023-04-24T12:24:59;6.35;;;4.53;;
46613;SDS011;32338;50.430;6.806;2023-04-24T12:27:30;6.43;;;4.28;;
46613;SDS011;32338;50.430;6.806;2023-04-24T12:29:58;10.63;;;5.63;;
46613;SDS011;32338;50.430;6.806;2023-04-24T12:32:26;8.70;;;5.07;;
46613;SDS011;32338;50.430;6.806;2023-04-24T12:34:52;10.25;;;5.53;;
46613;SDS011;32338;50.430;6.806;2023-04-24T12:37:20;11.25;;;5.07;;
46613;SDS011;32338;50.430;6.806;2023-04-24T12:39:59;8.23;;;4.95;;
46613;SDS011;32338;50.430;6.806;2023-04-24T12:42:27;5.30;;;3.97;;
46613;SDS011;32338;50.430;6.806;2023-04-24T12:44:58;6.03;;;4.05;;
46613;SDS011;32338;50.430;6.806;2023-04-24T12:47:28;10.20;;;4.00;;
46613;SDS011;32338;50.430;6.806;2023-04-24T12:49:55;9.80;;;3.95;;
46613;SDS011;32338;50.430;6.806;2023-04-24T12:52:22;11.35;;;3.60;;
46613;SDS011;32338;50.430;6.806;2023-04-24T12:54:52;4.03;;;3.67;;
46613;SDS011;32338;50.430;6.806;2023-04-24T12:57:20;7.25;;;4.00;;
46613;SDS011;32338;50.430;6.806;2023-04-24T12:59:47;6.78;;;4.47;;
46613;SDS011;32338;50.430;6.806;2023-04-24T13:02:14;8.02;;;3.78;;
46613;SDS011;32338;50.430;6.806;2023-04-24T13:04:42;6.10;;;3.70;;
46613;SDS011;32338;50.430;6.806;2023-04-24T13:07:10;4.55;;;3.17;;
46613;SDS011;32338;50.430;6.806;2023-04-24T13:09:37;5.95;;;3.72;;
46613;SDS011;32338;50.430;6.806;2023-04-24T13:12:04;5.05;;;3.70;;
46613;SDS011;32338;50.430;6.806;2023-04-24T13:14:32;5.95;;;3.35;;
46613;SDS011;32338;50.430;6.806;2023-04-24T13:16:59;7.00;;;3.55;;
46613;SDS011;32338;50.430;6.806;2023-04-24T13:19:26;5.65;;;3.80;;
46613;SDS011;32338;50.430;6.806;2023-04-24T13:21:54;4.28;;;3.50;;
46613;SDS011;32338;50.430;6.806;2023-04-24T13:24:21;5.13;;;3.63;;
46613;SDS011;32338;50.430;6.806;2023-04-24T13:26:49;5.22;;;3.80;;
46613;SDS011;32338;50.430;6.806;2023-04-24T13:29:16;6.82;;;4.22;;
46613;SDS011;32338;50.430;6.806;2023-04-24T13:31:44;7.45;;;4.40;;
46613;SDS011;32338;50.430;6.806;2023-04-24T13:34:12;7.00;;;4.50;;
46613;SDS011;32338;50.430;6.806;2023-04-24T13:36:39;8.00;;;4.72;;
46613;SDS011;32338;50.430;6.806;2023-04-24T13:39:05;6.22;;;4.47;;
46613;SDS011;32338;50.430;6.806;2023-04-24T13:41:32;4.68;;;4.20;;
46613;SDS011;32338;50.430;6.806;2023-04-24T13:44:00;9.07;;;5.20;;
46613;SDS011;32338;50.430;6.806;2023-04-24T13:46:27;5.72;;;5.13;;
46613;SDS011;32338;50.430;6.806;2023-04-24T13:48:55;7.28;;;4.93;;
46613;SDS011;32338;50.430;6.806;2023-04-24T13:51:21;8.88;;;5.38;;
46613;SDS011;32338;50.430;6.806;2023-04-24T13:53:49;8.93;;;4.82;;
46613;SDS011;32338;50.430;6.806;2023-04-24T13:56:15;7.93;;;4.65;;
46613;SDS011;32338;50.430;6.806;2023-04-24T13:58:42;6.68;;;4.95;;
46613;SDS011;32338;50.430;6.806;2023-04-24T14:01:09;8.05;;;5.25;;
46613;SDS011;32338;50.430;6.806;2023-04-24T14:03:36;5.90;;;4.97;;
46613;SDS011;32338;50.430;6.806;2023-04-24T14:06:05;6.95;;;4.82;;
46613;SDS011;32338;50.430;6.806;2023-04-24T14:08:32;6.20;;;4.47;;
46613;SDS011;32338;50.430;6.806;2023-04-24T14:10:58;7.00;;;5.05;;
46613;SDS011;32338;50.430;6.806;2023-04-24T14:13:25;14.35;;;5.72;;
46613;SDS011;32338;50.430;6.806;2023-04-24T14:15:52;7.63;;;5.85;;
46613;SDS011;32338;50.430;6.806;2023-04-24T14:18:19;5.90;;;5.35;;
46613;SDS011;32338;50.430;6.806;2023-04-24T14:20:45;6.65;;;4.85;;
46613;SDS011;32338;50.430;6.806;2023-04-24T14:23:13;5.13;;;4.63;;
46613;SDS011;32338;50.430;6.806;2023-04-24T14:25:40;5.72;;;4.25;;
46613;SDS011;32338;50.430;6.806;2023-04-24T14:28:07;4.35;;;3.95;;
46613;SDS011;32338;50.430;6.806;2023-04-24T14:30:33;4.10;;;3.72;;
46613;SDS011;32338;50.430;6.806;2023-04-24T14:33:02;5.18;;;4.20;;
46613;SDS011;32338;50.430;6.806;2023-04-24T14:35:29;5.35;;;4.22;;
46613;SDS011;32338;50.430;6.806;2023-04-24T14:37:56;5.60;;;5.05;;
46613;SDS011;32338;50.430;6.806;2023-04-24T14:40:24;7.72;;;5.03;;
46613;SDS011;32338;50.430;6.806;2023-04-24T14:42:51;7.72;;;5.93;;
46613;SDS011;32338;50.430;6.806;2023-04-24T14:45:17;5.90;;;4.53;;
46613;SDS011;32338;50.430;6.806;2023-04-24T14:47:44;6.78;;;5.38;;
46613;SDS011;32338;50.430;6.806;2023-04-24T14:50:11;6.25;;;5.65;;
46613;SDS011;32338;50.430;6.806;2023-04-24T14:52:37;5.75;;;5.15;;